Time;durP1;ratioP1;P1;durP2;ratioP2;P2;SDS_P1;SDS_P2;PMS_P1;PMS_P2;Temp;Humidity;BMP_temperature;BMP_pressure;BME280_temperature;BME280_humidity;BME280_pressure;Samples;Min_cycle;Max_cycle;Signal;HPM_P1;HPM_P2
2023/01/24 00:01:14;;;;;;;12.33;7.53;;;;;;;-141.59;100.00;61776.25;4946366;28;20232;-81
2023/01/24 00:03:43;;;;;;;17.73;8.27;;;;;;;-141.59;100.00;61776.25;4941673;29;20217;-81
2023/01/24 00:06:10;;;;;;;13.33;7.77;;;;;;;-141.59;100.00;61776.25;4947149;28;20217;-81
2023/01/24 00:08:37;;;;;;;15.30;8.37;;;;;;;-141.59;100.00;61776.25;4943810;29;20206;-81
2023/01/24 00:11:07;;;;;;;12.77;8.10;;;;;;;-141.59;100.00;61776.25;4939784;29;20204;-81
2023/01/24 00:13:35;;;;;;;12.33;8.53;;;;;;;-141.59;100.00;61776.25;4948602;28;20227;-81
2023/01/24 00:16:04;;;;;;;12.83;8.30;;;;;;;-141.59;100.00;61776.25;4948536;28;20229;-81
2023/01/24 00:18:33;;;;;;;13.23;7.93;;;;;;;-141.59;100.00;61776.25;4946230;28;20202;-81
2023/01/24 00:21:11;;;;;;;15.63;8.80;;;;;;;-141.59;100.00;61776.25;4940259;29;20222;-81
2023/01/24 00:23:40;;;;;;;12.93;8.03;;;;;;;-141.59;100.00;61776.25;4941883;28;20277;-81
2023/01/24 00:26:07;;;;;;;14.43;8.63;;;;;;;-141.59;100.00;61776.25;4942180;29;20317;-81
2023/01/24 00:28:35;;;;;;;16.40;8.53;;;;;;;-141.59;100.00;61776.25;4950144;29;20207;-81
2023/01/24 00:31:02;;;;;;;13.70;8.50;;;;;;;-141.59;100.00;61776.25;4949519;28;20248;-80
2023/01/24 00:33:31;;;;;;;13.10;8.43;;;;;;;-141.59;100.00;61776.25;4946803;28;20296;-81
2023/01/24 00:35:58;;;;;;;12.80;7.93;;;;;;;-141.59;100.00;61776.25;4944631;29;20205;-81
2023/01/24 00:38:27;;;;;;;12.30;7.27;;;;;;;-141.59;100.00;61776.25;4934704;28;20209;-83
2023/01/24 00:40:53;;;;;;;13.60;7.93;;;;;;;-141.59;100.00;61776.25;4947953;29;20209;-82
2023/01/24 00:43:20;;;;;;;13.33;8.17;;;;;;;-141.59;100.00;61776.25;4946780;28;20300;-82
2023/01/24 00:45:47;;;;;;;16.27;8.47;;;;;;;-141.59;100.00;61776.25;4936666;28;20209;-80
2023/01/24 00:48:15;;;;;;;13.23;7.70;;;;;;;-141.59;100.00;61776.25;4944395;28;20206;-80
2023/01/24 00:50:42;;;;;;;14.20;7.53;;;;;;;-141.59;100.00;61776.25;4935757;29;20202;-80
2023/01/24 00:53:09;;;;;;;14.63;8.33;;;;;;;-141.59;100.00;61776.25;4952676;28;20288;-80
2023/01/24 00:55:43;;;;;;;14.13;8.17;;;;;;;-141.59;100.00;61776.25;4943644;29;20214;-80
2023/01/24 00:58:12;;;;;;;13.77;8.17;;;;;;;-141.59;100.00;61776.25;4948746;28;20224;-80
2023/01/24 01:00:39;;;;;;;16.77;7.97;;;;;;;-141.59;100.00;61776.25;4951596;28;20201;-80
2023/01/24 01:03:07;;;;;;;14.23;8.13;;;;;;;-141.59;100.00;61776.25;4947339;29;20275;-80
2023/01/24 01:05:34;;;;;;;12.10;7.37;;;;;;;-141.59;100.00;61776.25;4945515;29;20210;-80
2023/01/24 01:08:01;;;;;;;13.10;7.90;;;;;;;-141.59;100.00;61776.25;4945029;29;20202;-80
2023/01/24 01:10:28;;;;;;;9.67;6.70;;;;;;;-141.59;100.00;61776.25;4941977;29;20206;-80
2023/01/24 01:12:57;;;;;;;13.90;7.27;;;;;;;-141.59;100.00;61776.25;4948634;28;20283;-80
2023/01/24 01:15:24;;;;;;;13.73;7.47;;;;;;;-141.59;100.00;61776.25;4947134;28;20233;-80
2023/01/24 01:17:51;;;;;;;12.70;7.53;;;;;;;-141.59;100.00;61776.25;4946717;29;20273;-80
2023/01/24 01:20:18;;;;;;;11.77;7.17;;;;;;;-141.59;100.00;61776.25;4942048;29;20198;-80
2023/01/24 01:22:46;;;;;;;11.57;6.97;;;;;;;-141.59;100.00;61776.25;4959785;28;20210;-80
2023/01/24 01:25:13;;;;;;;11.83;7.37;;;;;;;-141.59;100.00;61776.25;4941293;29;20198;-80
2023/01/24 01:27:40;;;;;;;12.37;7.13;;;;;;;-141.59;100.00;61776.25;4960269;28;20206;-80
2023/01/24 01:30:10;;;;;;;12.93;7.63;;;;;;;-141.59;100.00;61776.25;4949331;29;20209;-80
2023/01/24 01:32:37;;;;;;;11.63;7.17;;;;;;;-141.59;100.00;61776.25;4940709;29;20219;-80
2023/01/24 01:35:06;;;;;;;10.13;6.73;;;;;;;-141.59;100.00;61776.25;4941384;28;20245;-79
2023/01/24 01:37:33;;;;;;;13.03;7.50;;;;;;;-141.59;100.00;61776.25;4944671;28;20205;-80
2023/01/24 01:40:00;;;;;;;11.80;7.10;;;;;;;-141.59;100.00;61776.25;4949429;29;20209;-80
2023/01/24 01:42:37;;;;;;;12.40;7.33;;;;;;;-141.59;100.00;61776.25;4947039;29;20322;-80
2023/01/24 01:45:38;;;;;;;11.37;6.70;;;;;;;-141.59;100.00;61776.25;4949468;29;20205;-80
2023/01/24 01:48:14;;;;;;;12.60;7.37;;;;;;;-141.59;100.00;61776.25;4943739;29;20217;-80
2023/01/24 01:50:46;;;;;;;14.43;7.60;;;;;;;-141.59;100.00;61776.25;4932543;29;20292;-80
2023/01/24 01:53:16;;;;;;;12.67;7.83;;;;;;;-141.59;100.00;61776.25;4957874;28;20205;-80
2023/01/24 01:55:49;;;;;;;12.30;7.53;;;;;;;-141.59;100.00;61776.25;4944929;29;20256;-80
2023/01/24 01:58:19;;;;;;;13.77;8.10;;;;;;;-141.59;100.00;61776.25;4945143;28;20209;-80
2023/01/24 02:00:50;;;;;;;12.57;7.30;;;;;;;-141.59;100.00;61776.25;4943926;29;20222;-80
2023/01/24 02:03:41;;;;;;;16.70;7.80;;;;;;;-141.59;100.00;61776.25;4945875;28;20216;-80
2023/01/24 02:06:24;;;;;;;13.37;7.83;;;;;;;-141.59;100.00;61776.25;4944521;29;20230;-80
2023/01/24 02:08:53;;;;;;;12.50;7.97;;;;;;;-141.59;100.00;61776.25;4950898;28;20206;-80
2023/01/24 02:16:52;;;;;;;11.77;7.63;;;;;;;-141.59;100.00;61776.25;4935739;29;20230;-80
2023/01/24 02:19:48;;;;;;;14.50;8.03;;;;;;;-141.59;100.00;61776.25;4940711;29;20205;-80
2023/01/24 02:22:20;;;;;;;14.47;7.80;;;;;;;-141.59;100.00;61776.25;4956610;28;20210;-80
2023/01/24 02:25:01;;;;;;;12.77;7.97;;;;;;;-141.59;100.00;61776.25;4946845;29;20282;-80
2023/01/24 02:27:29;;;;;;;16.70;8.03;;;;;;;-141.59;100.00;61776.25;4944026;29;20208;-80
2023/01/24 02:29:57;;;;;;;15.27;8.57;;;;;;;-141.59;100.00;61776.25;4943662;29;20223;-80
2023/01/24 02:32:26;;;;;;;13.80;8.60;;;;;;;-141.59;100.00;61776.25;4941267;29;20209;-80
2023/01/24 02:34:53;;;;;;;13.83;7.70;;;;;;;-141.59;100.00;61776.25;4945482;29;20247;-79
2023/01/24 02:37:25;;;;;;;13.63;8.00;;;;;;;-141.59;100.00;61776.25;4942583;29;20378;-80
2023/01/24 02:39:57;;;;;;;15.60;9.03;;;;;;;-141.59;100.00;61776.25;4947125;28;20208;-80
2023/01/24 02:42:29;;;;;;;15.77;7.60;;;;;;;-141.59;100.00;61776.25;4950844;28;20241;-80
2023/01/24 02:45:06;;;;;;;17.67;8.10;;;;;;;-141.59;100.00;61776.25;4936983;29;20213;-79
2023/01/24 02:47:37;;;;;;;16.00;8.10;;;;;;;-141.59;100.00;61776.25;4941433;28;20215;-79
2023/01/24 02:50:08;;;;;;;11.23;7.77;;;;;;;-141.59;100.00;61776.25;4950212;29;20298;-80
2023/01/24 02:55:20;;;;;;;13.77;8.10;;;;;;;-141.59;100.00;61776.25;4941822;29;20236;-80
2023/01/24 03:00:35;;;;;;;16.87;8.00;;;;;;;-141.59;100.00;61776.25;4937660;29;20209;-80
2023/01/24 03:03:02;;;;;;;15.73;8.90;;;;;;;-141.59;100.00;61776.25;4958661;28;20204;-80
2023/01/24 03:05:39;;;;;;;16.43;9.13;;;;;;;-141.59;100.00;61776.25;4941792;29;20205;-80
2023/01/24 03:08:08;;;;;;;17.00;8.90;;;;;;;-141.59;100.00;61776.25;4937462;28;20210;-80
2023/01/24 03:10:36;;;;;;;14.93;8.47;;;;;;;-141.59;100.00;61776.25;4936650;28;20210;-80
2023/01/24 03:35:07;;;;;;;14.93;8.47;;;;;;;-141.59;100.00;61776.25;4947464;29;20241;-82
2023/01/24 03:40:21;;;;;;;18.10;9.17;;;;;;;-141.59;100.00;61776.25;4943538;29;20207;-82
2023/01/24 03:42:48;;;;;;;13.03;7.83;;;;;;;-141.59;100.00;61776.25;4940951;28;20290;-82
2023/01/24 03:45:19;;;;;;;16.50;8.33;;;;;;;-141.59;100.00;61776.25;4939262;29;20209;-82
2023/01/24 03:47:55;;;;;;;14.03;8.23;;;;;;;-141.59;100.00;61776.25;4935304;29;20207;-82
2023/01/24 03:53:11;;;;;;;14.80;8.67;;;;;;;-141.59;100.00;61776.25;4945643;29;20206;-82
2023/01/24 03:55:39;;;;;;;14.17;8.30;;;;;;;-141.59;100.00;61776.25;4948192;29;20230;-82
2023/01/24 03:58:08;;;;;;;14.67;8.33;;;;;;;-141.59;100.00;61776.25;4945504;28;20242;-83
2023/01/24 04:00:35;;;;;;;13.93;8.03;;;;;;;-141.59;100.00;61776.25;4942012;28;20222;-82
2023/01/24 04:03:10;;;;;;;13.60;8.23;;;;;;;-141.59;100.00;61776.25;4941719;29;20210;-82
2023/01/24 04:05:37;;;;;;;15.73;7.80;;;;;;;-141.59;100.00;61776.25;4940977;29;20304;-82
2023/01/24 04:08:08;;;;;;;12.60;8.00;;;;;;;-141.59;100.00;61776.25;4950058;29;20297;-82
2023/01/24 04:10:36;;;;;;;14.70;8.40;;;;;;;-141.59;100.00;61776.25;4940892;29;20213;-82
2023/01/24 04:13:03;;;;;;;15.23;9.57;;;;;;;-141.59;100.00;61776.25;4948242;28;20203;-83
2023/01/24 04:15:31;;;;;;;16.63;9.03;;;;;;;-141.59;100.00;61776.25;4945341;29;20223;-82
2023/01/24 04:18:22;;;;;;;14.10;7.80;;;;;;;-141.59;100.00;61776.25;4935289;29;20241;-82
2023/01/24 04:20:49;;;;;;;13.03;7.60;;;;;;;-141.59;100.00;61776.25;4950276;28;20230;-82
2023/01/24 04:23:16;;;;;;;15.73;9.07;;;;;;;-141.59;100.00;61776.25;4941521;29;20213;-83
2023/01/24 04:25:54;;;;;;;15.33;8.77;;;;;;;-141.59;100.00;61776.25;4947325;29;20346;-82
2023/01/24 04:28:22;;;;;;;14.03;7.90;;;;;;;-141.59;100.00;61776.25;4946365;28;20206;-83
2023/01/24 04:30:50;;;;;;;18.37;8.77;;;;;;;-141.59;100.00;61776.25;4947661;29;20208;-82
2023/01/24 04:33:34;;;;;;;13.77;8.43;;;;;;;-141.59;100.00;61776.25;4940298;28;20246;-82
2023/01/24 04:36:01;;;;;;;16.20;9.07;;;;;;;-141.59;100.00;61776.25;4946251;29;20254;-82
2023/01/24 04:38:28;;;;;;;16.13;8.30;;;;;;;-141.59;100.00;61776.25;4950168;29;20304;-82
2023/01/24 04:41:03;;;;;;;19.77;8.87;;;;;;;-141.59;100.00;61776.25;4938112;29;20210;-82
2023/01/24 04:43:37;;;;;;;16.93;8.43;;;;;;;-141.59;100.00;61776.25;4942296;29;20217;-82
2023/01/24 04:46:08;;;;;;;18.30;9.43;;;;;;;-141.59;100.00;61776.25;4958007;28;20202;-82
2023/01/24 04:48:51;;;;;;;14.87;8.43;;;;;;;-141.59;100.00;61776.25;4939352;29;20291;-80
2023/01/24 04:51:18;;;;;;;13.73;8.13;;;;;;;-141.59;100.00;61776.25;4949292;28;20214;-80
2023/01/24 04:53:46;;;;;;;15.80;8.30;;;;;;;-141.59;100.00;61776.25;4946382;29;20213;-80
2023/01/24 04:56:16;;;;;;;17.33;9.20;;;;;;;-141.59;100.00;61776.25;4947868;28;20242;-80
2023/01/24 04:58:44;;;;;;;13.77;8.43;;;;;;;-141.59;100.00;61776.25;4939860;28;20209;-80
2023/01/24 05:01:11;;;;;;;15.97;8.80;;;;;;;-141.59;100.00;61776.25;4944754;29;20209;-80
2023/01/24 05:03:50;;;;;;;20.17;11.53;;;;;;;-141.59;100.00;61776.25;4949947;29;20213;-80
2023/01/24 05:06:18;;;;;;;16.47;8.97;;;;;;;-141.59;100.00;61776.25;4937925;29;20206;-80
2023/01/24 05:08:45;;;;;;;14.73;8.47;;;;;;;-141.59;100.00;61776.25;4947214;29;20210;-80
2023/01/24 05:11:14;;;;;;;14.90;8.80;;;;;;;-141.59;100.00;61776.25;4940586;28;20213;-80
2023/01/24 05:13:45;;;;;;;19.20;8.90;;;;;;;-141.59;100.00;61776.25;4942222;29;20260;-80
2023/01/24 05:16:12;;;;;;;16.73;8.40;;;;;;;-141.59;100.00;61776.25;4939914;28;20240;-80
2023/01/24 05:18:39;;;;;;;14.60;8.33;;;;;;;-141.59;100.00;61776.25;4936871;28;20214;-79
2023/01/24 05:21:13;;;;;;;14.37;8.23;;;;;;;-141.59;100.00;61776.25;4962965;28;20250;-80
2023/01/24 05:23:41;;;;;;;15.93;9.37;;;;;;;-141.59;100.00;61776.25;4937842;28;20203;-82
2023/01/24 05:26:08;;;;;;;15.83;8.13;;;;;;;-141.59;100.00;61776.25;4952727;29;20210;-82
2023/01/24 05:28:35;;;;;;;14.93;9.03;;;;;;;-141.59;100.00;61776.25;4938064;29;20289;-82
2023/01/24 05:31:06;;;;;;;17.63;9.97;;;;;;;-141.59;100.00;61776.25;4944234;28;20242;-82
2023/01/24 05:33:34;;;;;;;16.03;9.27;;;;;;;-141.59;100.00;61776.25;4947225;28;20237;-82
2023/01/24 05:36:03;;;;;;;16.93;9.17;;;;;;;-141.59;100.00;61776.25;4945739;29;20251;-83
2023/01/24 05:38:35;;;;;;;16.13;8.93;;;;;;;-141.59;100.00;61776.25;4938784;29;20226;-83
2023/01/24 05:41:03;;;;;;;17.80;10.30;;;;;;;-141.59;100.00;61776.25;4943631;29;20207;-83
2023/01/24 05:43:31;;;;;;;16.33;9.67;;;;;;;-141.59;100.00;61776.25;4941941;29;20216;-82
2023/01/24 05:46:00;;;;;;;17.80;9.10;;;;;;;-141.59;100.00;61776.25;4948464;29;20213;-82
2023/01/24 05:48:27;;;;;;;18.97;9.67;;;;;;;-141.59;100.00;61776.25;4947499;29;20258;-83
2023/01/24 05:50:59;;;;;;;16.43;9.97;;;;;;;-141.59;100.00;61776.25;4945840;29;20210;-82
2023/01/24 05:53:26;;;;;;;18.53;10.07;;;;;;;-141.59;100.00;61776.25;4962165;28;20202;-82
2023/01/24 05:55:59;;;;;;;19.53;9.80;;;;;;;-141.59;100.00;61776.25;4946457;29;20217;-82
2023/01/24 05:58:26;;;;;;;16.17;9.57;;;;;;;-141.59;100.00;61776.25;4937555;28;20221;-82
2023/01/24 06:01:07;;;;;;;21.37;9.90;;;;;;;-141.59;100.00;61776.25;4952301;28;20322;-82
2023/01/24 06:03:54;;;;;;;16.50;9.63;;;;;;;-141.59;100.00;61776.25;4947660;28;20220;-82
2023/01/24 06:06:22;;;;;;;18.30;9.20;;;;;;;-141.59;100.00;61776.25;4947744;28;20250;-82
2023/01/24 06:08:50;;;;;;;16.23;9.63;;;;;;;-141.59;100.00;61776.25;4943908;29;20281;-82
2023/01/24 06:11:23;;;;;;;15.30;8.97;;;;;;;-141.59;100.00;61776.25;4942841;29;20204;-82
2023/01/24 06:13:54;;;;;;;18.60;9.37;;;;;;;-141.59;100.00;61776.25;4943592;28;20206;-82
2023/01/24 06:16:24;;;;;;;16.43;9.10;;;;;;;-141.59;100.00;61776.25;4941139;28;20229;-82
2023/01/24 06:18:52;;;;;;;18.73;10.53;;;;;;;-141.59;100.00;61776.25;4940508;29;20231;-82
2023/01/24 06:21:37;;;;;;;16.90;10.70;;;;;;;-141.59;100.00;61776.25;4946111;28;20206;-82
2023/01/24 06:24:05;;;;;;;15.70;9.27;;;;;;;-141.59;100.00;61776.25;4943892;28;20210;-83
2023/01/24 06:26:47;;;;;;;16.83;9.70;;;;;;;-141.59;100.00;61776.25;4943241;28;20221;-82
2023/01/24 06:29:15;;;;;;;18.17;9.83;;;;;;;-141.59;100.00;61776.25;4945683;28;20211;-82
2023/01/24 06:31:53;;;;;;;15.93;10.30;;;;;;;-141.59;100.00;61776.25;4948313;29;20217;-82
2023/01/24 06:34:47;;;;;;;20.50;10.57;;;;;;;-141.59;100.00;61776.25;4945492;29;20248;-82
2023/01/24 06:37:18;;;;;;;17.77;10.10;;;;;;;-141.59;100.00;61776.25;4947068;29;20267;-82
2023/01/24 06:39:51;;;;;;;26.63;13.53;;;;;;;-141.59;100.00;61776.25;4948340;29;20214;-82
2023/01/24 06:42:22;;;;;;;22.60;12.60;;;;;;;-141.59;100.00;61776.25;4938488;29;20213;-82
2023/01/24 06:44:49;;;;;;;23.80;12.20;;;;;;;-141.59;100.00;61776.25;4951985;28;20220;-82
2023/01/24 06:47:17;;;;;;;20.97;11.20;;;;;;;-141.59;100.00;61776.25;4947535;29;20265;-82
2023/01/24 06:49:44;;;;;;;21.80;11.50;;;;;;;-141.59;100.00;61776.25;4948937;29;20214;-83
2023/01/24 06:52:12;;;;;;;19.10;10.87;;;;;;;-141.59;100.00;61776.25;4944765;29;20283;-82
2023/01/24 06:54:39;;;;;;;20.23;11.33;;;;;;;-141.59;100.00;61776.25;4933485;29;20296;-83
2023/01/24 06:57:06;;;;;;;21.27;11.70;;;;;;;-141.59;100.00;61776.25;4945727;29;20234;-83
2023/01/24 06:59:35;;;;;;;19.50;11.17;;;;;;;-141.59;100.00;61776.25;4942498;29;20203;-83
2023/01/24 07:02:02;;;;;;;18.27;9.73;;;;;;;-141.59;100.00;61776.25;4941445;29;20216;-82
2023/01/24 07:04:29;;;;;;;19.17;10.60;;;;;;;-141.59;100.00;61776.25;4941146;29;20238;-82
2023/01/24 07:06:56;;;;;;;19.37;10.37;;;;;;;-141.59;100.00;61776.25;4939286;28;20209;-82
2023/01/24 07:09:24;;;;;;;16.23;9.70;;;;;;;-141.59;100.00;61776.25;4940178;29;20303;-83
2023/01/24 07:11:55;;;;;;;17.80;10.03;;;;;;;-141.59;100.00;61776.25;4950155;29;20198;-82
2023/01/24 07:14:22;;;;;;;18.17;10.47;;;;;;;-141.59;100.00;61776.25;4944784;29;20202;-82
2023/01/24 07:16:52;;;;;;;16.43;9.83;;;;;;;-141.59;100.00;61776.25;4946518;29;20235;-82
2023/01/24 07:19:21;;;;;;;16.10;8.90;;;;;;;-141.59;100.00;61776.25;4945931;29;20215;-82
2023/01/24 07:21:49;;;;;;;18.97;9.43;;;;;;;-141.59;100.00;61776.25;4946433;29;20313;-82
2023/01/24 07:24:19;;;;;;;14.90;8.87;;;;;;;-141.59;100.00;61776.25;4937756;29;20207;-82
2023/01/24 07:26:48;;;;;;;13.10;8.47;;;;;;;-141.59;100.00;61776.25;4946850;29;20217;-83
2023/01/24 07:29:15;;;;;;;16.30;8.43;;;;;;;-141.59;100.00;61776.25;4944414;28;20229;-82
2023/01/24 07:31:42;;;;;;;15.27;8.97;;;;;;;-141.59;100.00;61776.25;4944881;29;20221;-82
2023/01/24 07:34:11;;;;;;;16.10;9.30;;;;;;;-141.59;100.00;61776.25;4945558;29;20242;-82
2023/01/24 07:36:38;;;;;;;16.17;9.67;;;;;;;-141.59;100.00;61776.25;4941093;29;20228;-83
2023/01/24 07:39:05;;;;;;;17.57;9.33;;;;;;;-141.59;100.00;61776.25;4946796;29;20205;-82
2023/01/24 07:41:32;;;;;;;18.90;10.13;;;;;;;-141.59;100.00;61776.25;4949553;29;20223;-82
2023/01/24 07:44:04;;;;;;;18.03;10.90;;;;;;;-141.59;100.00;61776.25;4936848;29;20238;-83
2023/01/24 07:46:32;;;;;;;16.57;9.97;;;;;;;-141.59;100.00;61776.25;4943843;29;20213;-82
2023/01/24 07:48:59;;;;;;;18.77;10.43;;;;;;;-141.59;100.00;61776.25;4947986;29;20217;-82
2023/01/24 07:51:28;;;;;;;16.87;10.20;;;;;;;-141.59;100.00;61776.25;4948081;28;20215;-82
2023/01/24 07:53:55;;;;;;;19.23;10.57;;;;;;;-141.59;100.00;61776.25;4951635;29;20257;-82
2023/01/24 07:56:22;;;;;;;16.73;9.77;;;;;;;-141.59;100.00;61776.25;4949602;28;20230;-81
2023/01/24 07:58:49;;;;;;;15.97;10.03;;;;;;;-141.59;100.00;61776.25;4951365;29;20203;-81
2023/01/24 08:01:20;;;;;;;21.83;11.60;;;;;;;-141.59;100.00;61776.25;4947510;29;20233;-82
2023/01/24 08:03:47;;;;;;;18.57;10.30;;;;;;;-141.59;100.00;61776.25;4951602;29;20282;-82
2023/01/24 08:06:14;;;;;;;17.90;9.87;;;;;;;-141.59;100.00;61776.25;4951920;28;20209;-82
2023/01/24 08:08:43;;;;;;;24.70;13.57;;;;;;;-141.59;100.00;61776.25;4946830;29;20218;-82
2023/01/24 08:11:11;;;;;;;20.07;12.33;;;;;;;-141.59;100.00;61776.25;4951321;29;20250;-83
2023/01/24 08:13:38;;;;;;;20.17;11.17;;;;;;;-141.59;100.00;61776.25;4943452;29;20227;-82
2023/01/24 08:16:06;;;;;;;22.33;12.20;;;;;;;-141.59;100.00;61776.25;4950363;28;20225;-82
2023/01/24 08:18:34;;;;;;;19.17;11.27;;;;;;;-141.59;100.00;61776.25;4951109;28;20206;-83
2023/01/24 08:21:01;;;;;;;21.53;11.53;;;;;;;-141.59;100.00;61776.25;4952045;29;20203;-82
2023/01/24 08:23:28;;;;;;;20.00;11.00;;;;;;;-141.59;100.00;61776.25;4951151;29;20268;-82
2023/01/24 08:25:57;;;;;;;18.57;11.43;;;;;;;-141.59;100.00;61776.25;4949421;29;20214;-80
2023/01/24 08:28:25;;;;;;;21.03;12.23;;;;;;;-141.59;100.00;61776.25;4941463;29;20257;-80
2023/01/24 08:30:52;;;;;;;19.93;11.47;;;;;;;-141.59;100.00;61776.25;4944492;29;20217;-80
2023/01/24 08:33:19;;;;;;;22.77;12.57;;;;;;;-141.59;100.00;61776.25;4952546;29;20263;-80
2023/01/24 08:35:48;;;;;;;20.90;11.90;;;;;;;-141.59;100.00;61776.25;4949287;29;20586;-80
2023/01/24 08:38:16;;;;;;;19.57;11.20;;;;;;;-141.59;100.00;61776.25;4949467;29;20217;-81
2023/01/24 08:40:44;;;;;;;20.70;11.83;;;;;;;-141.59;100.00;61776.25;4946121;29;20279;-80
2023/01/24 08:43:13;;;;;;;20.53;11.13;;;;;;;-141.59;100.00;61776.25;4963974;28;20227;-80
2023/01/24 08:45:40;;;;;;;21.03;12.20;;;;;;;-141.59;100.00;61776.25;4948233;28;20194;-80
2023/01/24 08:48:08;;;;;;;28.23;13.03;;;;;;;-141.59;100.00;61776.25;4951458;29;20203;-80
2023/01/24 08:50:34;;;;;;;23.37;12.07;;;;;;;-141.59;100.00;61776.25;4951447;28;20198;-80
2023/01/24 08:53:02;;;;;;;21.73;11.63;;;;;;;-141.59;100.00;61776.25;4951949;29;20209;-80
2023/01/24 08:55:29;;;;;;;20.50;11.57;;;;;;;-141.59;100.00;61776.25;4947604;29;20213;-80
2023/01/24 08:58:00;;;;;;;22.60;13.37;;;;;;;-141.59;100.00;61776.25;4949223;29;20230;-80
2023/01/24 09:00:29;;;;;;;20.73;11.50;;;;;;;-141.59;100.00;61776.25;4945355;29;20220;-80
2023/01/24 09:02:58;;;;;;;20.27;12.30;;;;;;;-141.59;100.00;61776.25;4966221;28;20210;-80
2023/01/24 09:05:25;;;;;;;22.17;11.70;;;;;;;-141.59;100.00;61776.25;4944927;29;20206;-80
2023/01/24 09:07:53;;;;;;;22.00;12.27;;;;;;;-141.59;100.00;61776.25;4945826;28;20202;-80
2023/01/24 09:10:20;;;;;;;23.33;12.93;;;;;;;-141.59;100.00;61776.25;4946191;29;20244;-80
2023/01/24 09:12:47;;;;;;;24.20;12.23;;;;;;;-141.59;100.00;61776.25;4951169;29;20210;-81
2023/01/24 09:15:14;;;;;;;21.43;11.77;;;;;;;-141.59;100.00;61776.25;4951421;29;20214;-80
2023/01/24 09:17:42;;;;;;;19.27;11.60;;;;;;;-141.59;100.00;61776.25;4946204;29;20228;-80
2023/01/24 09:20:10;;;;;;;23.20;12.37;;;;;;;-141.59;100.00;61776.25;4947040;29;20215;-80
2023/01/24 09:22:37;;;;;;;19.23;10.97;;;;;;;-141.59;100.00;61776.25;4938938;29;20225;-79
2023/01/24 09:25:07;;;;;;;20.27;12.20;;;;;;;-141.59;100.00;61776.25;4946805;28;20215;-80
2023/01/24 09:27:34;;;;;;;18.37;11.17;;;;;;;-141.59;100.00;61776.25;4940513;29;20193;-80
2023/01/24 09:30:02;;;;;;;21.93;12.03;;;;;;;-141.59;100.00;61776.25;4945957;29;20206;-79
2023/01/24 09:32:29;;;;;;;19.33;11.20;;;;;;;-141.59;100.00;61776.25;4937751;28;20242;-80
2023/01/24 09:34:57;;;;;;;19.73;10.93;;;;;;;-141.59;100.00;61776.25;4944033;28;20237;-79
2023/01/24 09:37:24;;;;;;;18.57;11.33;;;;;;;-141.59;100.00;61776.25;4950731;29;20442;-79
2023/01/24 09:39:55;;;;;;;15.93;10.90;;;;;;;-141.59;100.00;61776.25;4935779;29;20268;-80
2023/01/24 09:42:31;;;;;;;17.40;10.93;;;;;;;-141.59;100.00;61776.25;4943206;29;20196;-79
2023/01/24 09:45:09;;;;;;;19.23;12.17;;;;;;;-141.59;100.00;61776.25;4951301;29;20205;-79
2023/01/24 09:47:45;;;;;;;22.33;12.33;;;;;;;-141.59;100.00;61776.25;4946983;29;20236;-81
2023/01/24 09:50:16;;;;;;;22.00;12.03;;;;;;;-141.59;100.00;61776.25;4947772;29;20224;-81
2023/01/24 09:52:46;;;;;;;18.70;11.00;;;;;;;-141.59;100.00;61776.25;4944226;28;20221;-81
2023/01/24 09:55:17;;;;;;;20.43;11.50;;;;;;;-141.59;100.00;61776.25;4946516;29;20208;-82
2023/01/24 09:57:52;;;;;;;21.97;11.17;;;;;;;-141.59;100.00;61776.25;4944033;29;20305;-82
2023/01/24 10:00:26;;;;;;;18.83;11.63;;;;;;;-141.59;100.00;61776.25;4946611;29;20218;-82
2023/01/24 10:02:55;;;;;;;20.10;11.53;;;;;;;-141.59;100.00;61776.25;4947964;29;20238;-82
2023/01/24 10:05:30;;;;;;;17.93;10.10;;;;;;;-141.59;100.00;61776.25;4954786;28;20214;-82
2023/01/24 10:08:13;;;;;;;19.83;10.73;;;;;;;-141.59;100.00;61776.25;4939522;29;20206;-82
2023/01/24 10:11:01;;;;;;;16.33;10.27;;;;;;;-141.59;100.00;61776.25;4945397;29;20217;-82
2023/01/24 10:14:00;;;;;;;26.43;11.63;;;;;;;-141.59;100.00;61776.25;4946340;29;20309;-82
2023/01/24 10:16:59;;;;;;;24.20;11.30;;;;;;;-141.59;100.00;61776.25;4960167;28;20332;-82
2023/01/24 10:19:47;;;;;;;20.13;11.90;;;;;;;-141.59;100.00;61776.25;4919082;28;20207;-81
2023/01/24 10:22:39;;;;;;;18.30;10.47;;;;;;;-141.59;100.00;61776.25;4946828;29;20255;-82
2023/01/24 10:25:17;;;;;;;27.40;12.27;;;;;;;-141.59;100.00;61776.25;4941844;28;20214;-82
2023/01/24 10:27:47;;;;;;;66.67;13.67;;;;;;;-141.59;100.00;61776.25;4948172;29;20213;-81
2023/01/24 10:30:17;;;;;;;25.37;11.57;;;;;;;-141.59;100.00;61776.25;4950561;29;20289;-82
2023/01/24 10:32:47;;;;;;;17.83;10.17;;;;;;;-141.59;100.00;61776.25;4940960;29;20216;-82
2023/01/24 10:35:17;;;;;;;17.73;10.67;;;;;;;-141.59;100.00;61776.25;4947387;29;20229;-81
2023/01/24 10:37:55;;;;;;;24.10;10.40;;;;;;;-141.59;100.00;61776.25;4947730;29;20225;-81
2023/01/24 10:40:25;;;;;;;19.23;10.27;;;;;;;-141.59;100.00;61776.25;4949020;29;20233;-81
2023/01/24 10:42:52;;;;;;;50.83;11.60;;;;;;;-141.59;100.00;61776.25;4946142;28;20224;-81
2023/01/24 10:45:46;;;;;;;25.37;10.00;;;;;;;-141.59;100.00;61776.25;4951824;29;20213;-81
2023/01/24 10:48:28;;;;;;;15.83;9.57;;;;;;;-141.59;100.00;61776.25;4947407;29;20228;-81
2023/01/24 10:50:55;;;;;;;18.67;10.30;;;;;;;-141.59;100.00;61776.25;4945227;29;20231;-81
2023/01/24 10:53:26;;;;;;;24.20;10.77;;;;;;;-141.59;100.00;61776.25;4948787;29;20203;-81
2023/01/24 10:55:59;;;;;;;18.30;10.13;;;;;;;-141.59;100.00;61776.25;4945088;29;20209;-81
2023/01/24 10:58:28;;;;;;;22.73;10.53;;;;;;;-141.59;100.00;61776.25;4949358;29;20233;-81
2023/01/24 11:01:00;;;;;;;24.50;10.43;;;;;;;-141.59;100.00;61776.25;4952178;28;20209;-81
2023/01/24 11:03:29;;;;;;;15.80;9.93;;;;;;;-141.59;100.00;61776.25;4950725;29;20296;-82
2023/01/24 11:05:58;;;;;;;18.37;10.10;;;;;;;-141.59;100.00;61776.25;4944611;29;20279;-82
2023/01/24 11:08:32;;;;;;;22.20;10.93;;;;;;;-141.59;100.00;61776.25;4953192;28;20307;-82
2023/01/24 11:11:00;;;;;;;20.73;10.30;;;;;;;-141.59;100.00;61776.25;4943386;29;20214;-82
2023/01/24 11:13:35;;;;;;;43.80;12.30;;;;;;;-141.59;100.00;61776.25;4937411;28;20206;-81
2023/01/24 11:16:05;;;;;;;27.27;11.07;;;;;;;-141.59;100.00;61776.25;4941176;28;20260;-82
2023/01/24 11:18:34;;;;;;;29.40;17.43;;;;;;;-141.59;100.00;61776.25;4946673;29;20333;-82
2023/01/24 11:21:10;;;;;;;20.83;12.80;;;;;;;-141.59;100.00;61776.25;4935519;29;20212;-82
2023/01/24 11:23:38;;;;;;;18.53;10.10;;;;;;;-141.59;100.00;61776.25;4950553;28;20257;-82
2023/01/24 11:26:07;;;;;;;18.03;10.37;;;;;;;-141.59;100.00;61776.25;4953730;28;20224;-82
2023/01/24 11:28:36;;;;;;;36.13;11.43;;;;;;;-141.59;100.00;61776.25;4950326;29;20232;-82
2023/01/24 11:31:09;;;;;;;25.73;11.13;;;;;;;-141.59;100.00;61776.25;4947216;28;20202;-83
2023/01/24 11:33:59;;;;;;;31.70;11.33;;;;;;;-141.59;100.00;61776.25;4945517;29;20233;-82
2023/01/24 11:36:40;;;;;;;32.23;10.83;;;;;;;-141.59;100.00;61776.25;4949152;29;20208;-82
2023/01/24 11:39:18;;;;;;;22.50;10.07;;;;;;;-141.59;100.00;61776.25;4948357;28;20201;-81
2023/01/24 11:41:54;;;;;;;23.23;10.07;;;;;;;-141.59;100.00;61776.25;4944237;29;20219;-82
2023/01/24 11:44:39;;;;;;;27.03;11.00;;;;;;;-141.59;100.00;61776.25;4944232;28;20193;-82
2023/01/24 11:47:12;;;;;;;32.17;10.30;;;;;;;-141.59;100.00;61776.25;4939716;29;20213;-81
2023/01/24 11:50:10;;;;;;;28.60;10.33;;;;;;;-141.59;100.00;61776.25;4949671;28;20209;-82
2023/01/24 11:52:52;;;;;;;24.47;10.07;;;;;;;-141.59;100.00;61776.25;4943966;29;20269;-82
2023/01/24 11:55:36;;;;;;;22.57;10.03;;;;;;;-141.59;100.00;61776.25;4941421;29;20206;-82